createdAt,value
2018-03-19T00:00:20.198Z,-0.20
2018-03-19T00:02:52.157Z,-0.20
2018-03-19T00:05:24.042Z,-0.20
2018-03-19T00:07:55.637Z,-0.10
2018-03-19T00:10:28.510Z,0.00
2018-03-19T00:13:00.539Z,-0.30
2018-03-19T00:15:32.354Z,-0.10
2018-03-19T00:18:03.779Z,-0.10
2018-03-19T00:20:37.091Z,0.00
2018-03-19T00:23:09.332Z,0.00
2018-03-19T00:25:40.956Z,0.00
2018-03-19T00:28:13.268Z,-0.10
2018-03-19T00:30:45.601Z,-0.20
2018-03-19T00:33:17.230Z,-0.20
2018-03-19T00:39:22.300Z,0.10
2018-03-19T00:41:54.007Z,0.40
2018-03-19T00:44:25.611Z,0.50
2018-03-19T00:46:56.926Z,0.20
2018-03-19T00:49:29.056Z,-0.30
2018-03-19T00:52:00.457Z,-0.30
2018-03-19T00:54:32.232Z,-0.30
2018-03-19T00:57:04.118Z,-0.20
2018-03-19T00:59:35.389Z,-0.20
2018-03-19T01:02:06.540Z,-0.30
2018-03-19T01:04:38.238Z,-0.40
2018-03-19T01:07:09.677Z,-0.40
2018-03-19T01:09:41.343Z,-0.30
2018-03-19T01:12:12.469Z,0.20
2018-03-19T01:14:43.978Z,-0.10
2018-03-19T01:17:15.304Z,-0.40
2018-03-19T01:19:46.506Z,-0.30
2018-03-19T01:22:18.825Z,1.20
2018-03-19T01:24:50.107Z,-0.20
2018-03-19T01:27:22.293Z,-0.20
2018-03-19T01:29:54.369Z,-0.10
2018-03-19T01:32:25.533Z,-0.10
2018-03-19T01:34:56.463Z,-0.20
2018-03-19T01:37:27.538Z,-0.30
2018-03-19T01:39:58.732Z,-0.40
2018-03-19T01:42:29.896Z,-0.50
2018-03-19T01:45:01.130Z,-0.60
2018-03-19T01:47:31.965Z,-0.60
2018-03-19T01:50:03.081Z,-0.50
2018-03-19T01:52:43.323Z,-0.20
2018-03-19T01:55:14.232Z,-0.30
2018-03-19T01:57:45.026Z,-0.40
2018-03-19T02:00:16.883Z,-0.40
2018-03-19T02:02:47.366Z,-0.40
2018-03-19T02:05:18.510Z,-0.10
2018-03-19T02:07:49.285Z,0.00
2018-03-19T02:10:21.045Z,-0.10
2018-03-19T02:12:52.476Z,-0.20
2018-03-19T02:15:23.517Z,-0.20
2018-03-19T02:17:54.160Z,0.00
2018-03-19T02:20:25.799Z,-0.20
2018-03-19T02:22:56.453Z,-0.20
2018-03-19T02:25:27.816Z,-0.30
2018-03-19T02:27:59.252Z,-0.30
2018-03-19T02:30:30.592Z,-0.20
2018-03-19T02:33:01.396Z,-0.20
2018-03-19T02:35:32.579Z,-0.20
2018-03-19T02:38:04.226Z,-0.20
2018-03-19T02:40:35.136Z,-0.20
2018-03-19T02:43:05.814Z,-0.40
2018-03-19T02:45:36.981Z,-0.50
2018-03-19T02:48:07.551Z,-0.50
2018-03-19T02:50:37.904Z,-0.40
2018-03-19T02:53:08.428Z,-0.70
2018-03-19T02:55:39.340Z,-0.60
2018-03-19T02:58:09.899Z,-0.60
2018-03-19T03:00:41.185Z,-0.60
2018-03-19T03:03:11.818Z,-0.70
2018-03-19T03:05:42.492Z,-1.00
2018-03-19T03:08:13.228Z,-0.90
2018-03-19T03:10:43.845Z,-0.80
2018-03-19T03:13:14.427Z,-0.80
2018-03-19T03:15:45.799Z,-0.60
2018-03-19T03:18:16.525Z,-0.50
2018-03-19T03:20:47.096Z,1.00
2018-03-19T03:23:17.545Z,-0.30
2018-03-19T03:25:48.774Z,0.00
2018-03-19T03:28:19.268Z,0.00
2018-03-19T03:30:50.316Z,-0.20
2018-03-19T03:33:20.964Z,-0.10
2018-03-19T03:35:51.534Z,-0.10
2018-03-19T03:38:22.248Z,-1.70
2018-03-19T03:40:53.725Z,-0.30
2018-03-19T03:43:24.350Z,-0.30
2018-03-19T03:45:54.851Z,1.40
2018-03-19T03:48:30.444Z,-0.20
2018-03-19T03:51:01.258Z,-0.20
2018-03-19T03:53:32.701Z,0.00
2018-03-19T03:56:04.223Z,0.10
2018-03-19T03:58:34.795Z,0.10
2018-03-19T04:01:06.091Z,0.30
2018-03-19T04:03:36.661Z,0.40
2018-03-19T04:06:08.357Z,0.10
2018-03-19T04:08:39.070Z,0.10
2018-03-19T04:11:09.622Z,0.10
2018-03-19T04:13:40.383Z,-0.20
2018-03-19T04:16:10.933Z,-0.30
2018-03-19T04:18:41.456Z,-0.30
2018-03-19T04:21:11.896Z,-0.20
2018-03-19T04:23:42.445Z,-0.20
2018-03-19T04:26:13.265Z,-0.10
2018-03-19T04:28:43.818Z,-0.10
2018-03-19T04:31:14.427Z,-0.20
2018-03-19T04:33:44.998Z,-0.30
2018-03-19T04:36:15.756Z,-0.70
2018-03-19T04:38:46.301Z,-0.60
2018-03-19T04:41:16.876Z,-0.70
2018-03-19T04:43:47.323Z,-0.80
2018-03-19T04:46:18.303Z,-0.70
2018-03-19T04:48:48.850Z,-0.70
2018-03-19T04:51:19.576Z,-0.60
2018-03-19T04:53:50.042Z,-0.50
2018-03-19T04:56:21.066Z,-0.50
2018-03-19T04:58:51.914Z,-0.40
2018-03-19T05:01:22.784Z,-0.40
2018-03-19T05:03:53.864Z,-0.30
2018-03-19T05:06:25.357Z,-0.50
2018-03-19T05:08:56.000Z,-0.50
2018-03-19T05:11:26.554Z,-0.50
2018-03-19T05:13:57.287Z,-0.60
2018-03-19T05:16:28.174Z,-0.60
2018-03-19T05:18:58.686Z,-2.10
2018-03-19T05:21:30.231Z,-0.60
2018-03-19T05:24:01.823Z,0.10
2018-03-19T05:26:32.920Z,-0.40
2018-03-19T05:29:04.480Z,-0.40
2018-03-19T05:31:35.267Z,-0.70
2018-03-19T05:34:05.945Z,-0.70
2018-03-19T05:36:36.971Z,-0.50
2018-03-19T05:39:08.276Z,-0.60
2018-03-19T05:41:39.730Z,0.20
2018-03-19T05:44:11.588Z,-0.20
2018-03-19T05:46:52.077Z,-0.20
2018-03-19T05:49:27.892Z,0.00
2018-03-19T05:51:58.913Z,-0.10
2018-03-19T05:54:31.896Z,-0.30
2018-03-19T05:57:04.767Z,-0.20
2018-03-19T05:59:36.444Z,0.00
2018-03-19T06:02:08.702Z,-0.10
2018-03-19T06:04:41.338Z,-0.10
2018-03-19T06:07:12.758Z,-0.10
2018-03-19T06:09:46.242Z,-0.30
2018-03-19T06:12:18.642Z,-0.20
2018-03-19T06:14:52.087Z,-0.20
2018-03-19T06:17:24.080Z,-0.10
2018-03-19T06:19:58.171Z,-0.10
2018-03-19T06:22:32.574Z,-0.10
2018-03-19T06:25:08.100Z,-0.20
2018-03-19T06:27:40.874Z,0.00
2018-03-19T06:30:13.091Z,1.60
2018-03-19T06:32:46.454Z,0.00
2018-03-19T06:35:18.852Z,-0.20
2018-03-19T06:37:50.307Z,-0.10
2018-03-19T06:40:22.509Z,-0.20
2018-03-19T06:42:54.547Z,-0.20
2018-03-19T06:45:27.083Z,-0.30
2018-03-19T06:48:04.808Z,-0.30
2018-03-19T06:50:37.469Z,-0.20
2018-03-19T06:53:09.639Z,-1.40
2018-03-19T06:55:41.737Z,-0.50
2018-03-19T06:58:20.758Z,-0.40
2018-03-19T07:00:56.861Z,-0.40
2018-03-19T07:03:31.616Z,-0.10
2018-03-19T07:06:04.469Z,0.10
2018-03-19T07:08:36.853Z,0.20
2018-03-19T07:11:08.917Z,0.30
2018-03-19T07:13:44.874Z,0.00
2018-03-19T07:16:17.428Z,0.20
2018-03-19T07:18:49.732Z,0.10
2018-03-19T07:21:22.127Z,0.20
2018-03-19T07:23:56.518Z,0.40
2018-03-19T07:26:28.816Z,0.10
2018-03-19T07:29:01.310Z,0.10
2018-03-19T07:31:33.729Z,0.10
2018-03-19T07:34:05.723Z,-0.50
2018-03-19T07:36:38.831Z,-0.50
2018-03-19T07:39:11.880Z,-0.50
2018-03-19T07:41:45.161Z,-0.40
2018-03-19T07:44:17.468Z,-0.60
2018-03-19T07:46:50.333Z,-0.30
2018-03-19T07:49:26.007Z,-0.10
2018-03-19T07:51:57.842Z,0.10
2018-03-19T07:54:29.303Z,0.00
2018-03-19T07:57:04.095Z,-0.10
2018-03-19T07:59:36.768Z,-0.30
2018-03-19T08:02:08.895Z,0.60
2018-03-19T08:04:42.344Z,-0.40
2018-03-19T08:07:14.504Z,-0.40
2018-03-19T08:09:46.715Z,-0.20
2018-03-19T08:56:06.952Z,-0.30
2018-03-19T08:58:40.241Z,0.50
2018-03-19T09:01:12.966Z,0.60
2018-03-19T09:03:45.604Z,0.70
2018-03-19T09:06:20.161Z,0.90
2018-03-19T09:08:52.037Z,0.90
2018-03-19T09:11:23.718Z,1.00
2018-03-19T09:13:55.619Z,1.20
2018-03-19T09:16:27.957Z,1.20
2018-03-19T09:19:01.270Z,1.20
2018-03-19T09:21:33.711Z,1.40
2018-03-19T09:24:05.515Z,1.40
2018-03-19T09:26:38.084Z,1.10
2018-03-19T09:29:10.252Z,0.90
2018-03-19T09:31:42.940Z,0.90
2018-03-19T09:34:14.962Z,0.90
2018-03-19T09:36:46.736Z,1.20
2018-03-19T09:42:06.773Z,1.50
2018-03-19T09:44:39.541Z,1.40
2018-03-19T09:47:12.944Z,1.70
2018-03-19T09:49:50.002Z,1.70
2018-03-19T09:52:23.612Z,1.80
2018-03-19T09:54:56.442Z,2.00
2018-03-19T09:57:28.248Z,2.00
2018-03-19T10:00:00.353Z,2.00
2018-03-19T10:02:32.570Z,2.20
2018-03-19T10:05:04.483Z,2.40
2018-03-19T10:07:36.392Z,2.50
2018-03-19T10:10:08.941Z,2.60
2018-03-19T10:12:41.124Z,2.20
2018-03-19T10:15:13.840Z,1.70
2018-03-19T10:17:46.491Z,1.20
2018-03-19T10:20:21.973Z,1.20
2018-03-19T10:22:54.722Z,1.60
2018-03-19T10:25:26.870Z,1.60
2018-03-19T10:27:59.009Z,2.00
2018-03-19T10:30:30.803Z,2.20
2018-03-19T10:33:02.969Z,1.90
2018-03-19T10:35:35.152Z,1.80
2018-03-19T10:38:07.407Z,2.00
2018-03-19T10:40:39.296Z,1.90
2018-03-19T10:43:11.548Z,1.70
2018-03-19T10:45:43.473Z,1.70
2018-03-19T10:48:15.447Z,1.60
2018-03-19T10:50:47.092Z,1.70
2018-03-19T10:53:21.111Z,1.90
2018-03-19T10:55:54.522Z,1.70
2018-03-19T10:58:26.724Z,2.20
2018-03-19T11:01:03.015Z,1.80
2018-03-19T11:03:40.975Z,1.80
2018-03-19T11:06:27.297Z,1.40
2018-03-19T11:09:05.694Z,1.60
2018-03-19T11:11:52.684Z,1.60
2018-03-19T11:14:28.486Z,1.30
2018-03-19T11:17:01.288Z,1.40
2018-03-19T11:19:34.209Z,1.40
2018-03-19T11:22:06.715Z,1.40
2018-03-19T11:24:40.871Z,1.60
2018-03-19T11:27:14.194Z,1.50
2018-03-19T11:29:46.628Z,1.40
2018-03-19T11:32:19.105Z,1.50
2018-03-19T11:34:52.210Z,-0.10
2018-03-19T11:37:24.548Z,1.40
2018-03-19T11:39:57.377Z,1.50
2018-03-19T11:42:32.991Z,1.50
2018-03-19T11:45:17.960Z,1.20
2018-03-19T11:47:53.669Z,1.30
2018-03-19T11:50:31.464Z,1.30
2018-03-19T11:53:06.299Z,1.50
2018-03-19T11:55:50.877Z,1.40
2018-03-19T11:58:27.576Z,1.10
2018-03-19T12:01:00.494Z,1.00
2018-03-19T12:03:34.265Z,1.00
2018-03-19T12:06:06.566Z,1.10
2018-03-19T12:08:38.560Z,2.50
2018-03-19T12:11:10.385Z,1.40
2018-03-19T12:13:41.889Z,1.50
2018-03-19T12:16:14.636Z,1.60
2018-03-19T12:18:47.599Z,1.60
2018-03-19T12:21:19.255Z,1.70
2018-03-19T12:23:53.649Z,1.70
2018-03-19T12:26:25.235Z,1.70
2018-03-19T12:28:57.226Z,1.80
2018-03-19T12:31:36.170Z,2.10
2018-03-19T12:34:09.174Z,2.00
2018-03-19T12:36:41.121Z,1.90
2018-03-19T12:39:14.279Z,1.70
2018-03-19T12:41:47.130Z,1.80
2018-03-19T12:44:23.682Z,1.90
2018-03-19T12:46:56.692Z,1.60
2018-03-19T12:49:28.892Z,1.60
2018-03-19T12:52:00.825Z,1.60
2018-03-19T12:54:32.678Z,1.50
2018-03-19T12:57:04.292Z,1.50
2018-03-19T12:59:36.932Z,1.60
2018-03-19T13:02:08.822Z,1.60
2018-03-19T13:04:40.920Z,1.80
2018-03-19T13:07:14.632Z,1.80
2018-03-19T13:09:46.620Z,1.70
2018-03-19T13:12:18.167Z,1.60
2018-03-19T13:14:50.101Z,1.80
2018-03-19T13:17:22.457Z,1.80
2018-03-19T13:19:54.662Z,1.80
2018-03-19T13:22:26.994Z,1.60
2018-03-19T13:24:58.750Z,1.70
2018-03-19T13:27:31.058Z,1.90
2018-03-19T13:30:02.840Z,1.90
2018-03-19T13:32:35.022Z,2.10
2018-03-19T13:35:06.787Z,2.10
2018-03-19T13:37:38.435Z,2.30
2018-03-19T13:40:10.087Z,2.30
2018-03-19T13:42:42.243Z,2.40
2018-03-19T13:45:14.109Z,2.40
2018-03-19T13:47:45.306Z,2.50
2018-03-19T13:50:17.729Z,2.50
2018-03-19T13:52:49.431Z,2.50
2018-03-19T13:55:22.199Z,1.60
2018-03-19T13:57:54.898Z,2.40
2018-03-19T14:00:27.144Z,2.30
2018-03-19T14:03:01.372Z,2.30
2018-03-19T14:05:34.336Z,2.30
2018-03-19T14:08:06.674Z,2.30
2018-03-19T14:10:38.325Z,2.30
2018-03-19T14:13:12.516Z,2.40
2018-03-19T14:15:44.882Z,2.50
2018-03-19T14:18:18.167Z,2.60
2018-03-19T14:20:52.384Z,2.50
2018-03-19T14:23:27.365Z,2.60
2018-03-19T14:26:00.092Z,2.60
2018-03-19T14:28:36.397Z,2.70
2018-03-19T14:31:12.109Z,2.80
2018-03-19T14:33:45.002Z,2.90
2018-03-19T14:36:18.091Z,2.90
2018-03-19T14:39:03.304Z,2.90
2018-03-19T14:41:45.668Z,2.90
2018-03-19T14:44:21.759Z,3.00
2018-03-19T14:46:57.390Z,2.80
2018-03-19T14:52:12.424Z,2.70
2018-03-19T14:54:44.413Z,2.80
2018-03-19T14:57:16.623Z,2.90
2018-03-19T14:59:48.459Z,2.90
2018-03-19T15:02:22.031Z,3.10
2018-03-19T15:04:56.283Z,3.10
2018-03-19T15:07:30.694Z,2.90
2018-03-19T15:10:06.136Z,3.10
2018-03-19T15:12:39.464Z,3.20
2018-03-19T15:15:11.540Z,3.20
2018-03-19T15:17:45.061Z,3.30
2018-03-19T15:20:17.616Z,3.20
2018-03-19T15:22:49.842Z,3.20
2018-03-19T15:25:21.987Z,3.30
2018-03-19T15:27:54.367Z,2.80
2018-03-19T15:30:26.957Z,3.30
2018-03-19T15:32:59.226Z,3.30
2018-03-19T15:35:31.245Z,3.30
2018-03-19T15:38:02.888Z,3.30
2018-03-19T15:40:35.409Z,3.60
2018-03-19T15:43:07.566Z,3.30
2018-03-19T15:45:39.039Z,3.30
2018-03-19T15:48:10.602Z,3.40
2018-03-19T15:50:42.886Z,3.40
2018-03-19T15:53:14.195Z,3.50
2018-03-19T15:55:45.719Z,3.40
2018-03-19T15:58:17.920Z,3.40
2018-03-19T16:00:49.358Z,3.40
2018-03-19T16:03:21.340Z,3.30
2018-03-19T16:05:53.156Z,3.30
2018-03-19T16:08:25.225Z,3.30
2018-03-19T16:10:57.714Z,3.40
2018-03-19T16:13:29.949Z,3.40
2018-03-19T16:16:01.800Z,3.40
2018-03-19T16:18:33.007Z,3.40
2018-03-19T16:21:05.818Z,3.30
2018-03-19T16:23:37.933Z,3.40
2018-03-19T16:26:09.914Z,3.70
2018-03-19T16:28:41.914Z,3.30
2018-03-19T16:31:13.305Z,3.40
2018-03-19T16:33:44.580Z,3.30
2018-03-19T16:36:16.372Z,3.30
2018-03-19T16:38:48.960Z,3.20
2018-03-19T16:41:20.472Z,3.20
2018-03-19T16:43:52.084Z,3.30
2018-03-19T16:46:24.249Z,3.20
2018-03-19T16:48:55.778Z,3.20
2018-03-19T16:51:30.079Z,3.20
2018-03-19T16:54:01.999Z,3.10
2018-03-19T16:56:34.142Z,3.10
2018-03-19T16:59:05.288Z,3.10
2018-03-19T17:01:36.652Z,3.10
2018-03-19T17:04:08.012Z,3.10
2018-03-19T17:06:39.524Z,3.10
2018-03-19T17:09:11.864Z,3.10
2018-03-19T17:11:43.388Z,3.10
2018-03-19T17:14:14.793Z,3.10
2018-03-19T17:16:46.944Z,3.10
2018-03-19T17:19:19.052Z,3.00
2018-03-19T17:21:50.664Z,3.00
2018-03-19T17:24:22.637Z,2.90
2018-03-19T17:26:54.548Z,2.90
2018-03-19T17:29:26.118Z,2.90
2018-03-19T17:31:57.368Z,2.80
2018-03-19T17:34:28.465Z,2.80
2018-03-19T17:37:01.216Z,2.80
2018-03-19T17:39:33.959Z,2.80
2018-03-19T17:42:05.152Z,2.80
2018-03-19T17:44:36.399Z,2.90
2018-03-19T17:47:08.500Z,2.90
2018-03-19T17:49:39.675Z,2.90
2018-03-19T17:52:10.924Z,2.90
2018-03-19T17:54:42.435Z,2.90
2018-03-19T17:57:13.864Z,2.90
2018-03-19T17:59:45.011Z,4.20
2018-03-19T18:02:16.978Z,2.80
2018-03-19T18:04:48.160Z,2.70
2018-03-19T18:07:21.447Z,2.70
2018-03-19T18:09:52.985Z,2.70
2018-03-19T18:12:24.308Z,2.60
2018-03-19T18:14:55.859Z,2.70
2018-03-19T18:17:27.674Z,2.70
2018-03-19T18:19:58.948Z,2.70
2018-03-19T18:22:30.803Z,2.40
2018-03-19T18:25:02.937Z,2.50
2018-03-19T18:27:35.244Z,2.50
2018-03-19T18:30:07.690Z,2.50
2018-03-19T18:32:38.949Z,2.50
2018-03-19T18:35:10.141Z,2.50
2018-03-19T18:37:41.959Z,2.50
2018-03-19T18:40:14.620Z,2.50
2018-03-19T18:42:45.858Z,2.50
2018-03-19T18:45:17.804Z,2.50
2018-03-19T18:47:48.908Z,2.50
2018-03-19T18:50:20.925Z,2.50
2018-03-19T18:52:52.371Z,2.50
2018-03-19T18:55:24.142Z,2.40
2018-03-19T18:57:55.567Z,2.40
2018-03-19T19:00:27.245Z,2.30
2018-03-19T19:02:58.289Z,2.30
2018-03-19T19:05:29.688Z,2.30
2018-03-19T19:08:01.026Z,2.30
2018-03-19T19:10:32.998Z,2.20
2018-03-19T19:13:05.155Z,2.10
2018-03-19T19:15:37.084Z,3.20
2018-03-19T19:18:08.418Z,2.00
2018-03-19T19:20:39.878Z,2.00
2018-03-19T19:23:11.283Z,2.00
2018-03-19T19:25:42.931Z,2.10
2018-03-19T19:28:14.382Z,2.10
2018-03-19T19:30:46.806Z,2.00
2018-03-19T19:33:18.394Z,2.00
2018-03-19T19:35:50.439Z,2.00
2018-03-19T19:38:21.962Z,2.00
2018-03-19T19:40:53.149Z,2.00
2018-03-19T19:43:25.342Z,1.90
2018-03-19T19:45:58.081Z,1.90
2018-03-19T19:48:29.440Z,1.90
2018-03-19T19:51:01.554Z,1.80
2018-03-19T19:53:32.735Z,1.80
2018-03-19T19:56:04.216Z,1.80
2018-03-19T19:58:35.221Z,1.80
2018-03-19T20:01:06.557Z,3.10
2018-03-19T20:03:38.608Z,1.80
2018-03-19T20:06:09.510Z,1.90
2018-03-19T20:08:41.534Z,1.80
2018-03-19T20:11:12.983Z,1.80
2018-03-19T20:13:44.046Z,1.80
2018-03-19T20:16:15.888Z,1.70
2018-03-19T20:18:47.494Z,1.50
2018-03-19T20:21:19.773Z,1.50
2018-03-19T20:23:50.951Z,1.40
2018-03-19T20:26:22.077Z,1.20
2018-03-19T20:28:53.222Z,1.20
2018-03-19T20:31:24.789Z,1.10
2018-03-19T20:33:56.094Z,1.00
2018-03-19T20:36:28.166Z,0.80
2018-03-19T20:38:59.236Z,0.80
2018-03-19T20:41:30.311Z,0.90
2018-03-19T20:44:02.351Z,0.90
2018-03-19T20:46:33.602Z,0.90
2018-03-19T20:49:04.646Z,0.80
2018-03-19T20:51:36.972Z,0.50
2018-03-19T20:54:08.952Z,0.50
2018-03-19T20:56:40.316Z,0.40
2018-03-19T20:59:12.511Z,0.40
2018-03-19T21:01:43.822Z,0.40
2018-03-19T21:04:15.176Z,-1.30
2018-03-19T21:06:46.625Z,0.50
2018-03-19T21:09:17.948Z,0.40
2018-03-19T21:11:49.058Z,0.20
2018-03-19T21:14:20.288Z,0.20
2018-03-19T21:16:51.394Z,0.10
2018-03-19T21:19:22.434Z,0.20
2018-03-19T21:21:53.699Z,0.40
2018-03-19T21:24:24.954Z,0.50
2018-03-19T21:26:56.202Z,0.50
2018-03-19T21:29:27.534Z,0.40
2018-03-19T21:31:59.110Z,0.20
2018-03-19T21:34:30.162Z,0.20
2018-03-19T21:37:01.298Z,0.20
2018-03-19T21:39:32.603Z,0.00
2018-03-19T21:42:04.035Z,-0.10
2018-03-19T21:44:36.176Z,-0.30
2018-03-19T21:47:07.614Z,-0.30
2018-03-19T21:49:38.904Z,-0.20
2018-03-19T21:52:10.232Z,-1.10
2018-03-19T21:54:43.148Z,-0.20
2018-03-19T21:57:14.421Z,-0.20
2018-03-19T21:59:46.106Z,-0.10
2018-03-19T22:02:17.680Z,0.10
2018-03-19T22:04:49.727Z,0.40
2018-03-19T22:07:21.772Z,0.20
2018-03-19T22:09:53.482Z,0.20
2018-03-19T22:12:24.827Z,0.20
2018-03-19T22:14:57.167Z,0.00
2018-03-19T22:17:29.605Z,0.10
2018-03-19T22:20:00.964Z,0.00
2018-03-19T22:22:32.482Z,0.10
2018-03-19T22:25:04.136Z,0.20
2018-03-19T22:27:35.737Z,0.30
2018-03-19T22:30:07.127Z,0.30
2018-03-19T22:32:39.697Z,0.30
2018-03-19T22:35:11.647Z,0.30
2018-03-19T22:37:43.078Z,0.30
2018-03-19T22:40:15.240Z,0.30
2018-03-19T22:42:46.662Z,0.40
2018-03-19T22:45:18.222Z,0.40
2018-03-19T22:47:50.155Z,0.40
2018-03-19T22:50:22.391Z,0.40
2018-03-19T22:52:53.924Z,0.40
2018-03-19T22:55:25.590Z,0.40
2018-03-19T22:57:57.059Z,0.30
2018-03-19T23:00:29.370Z,0.30
2018-03-19T23:03:01.345Z,0.30
2018-03-19T23:05:33.048Z,0.30
2018-03-19T23:08:04.760Z,0.20
2018-03-19T23:10:36.134Z,0.30
2018-03-19T23:13:07.814Z,0.30
2018-03-19T23:15:39.700Z,0.20
2018-03-19T23:18:12.859Z,0.10
2018-03-19T23:20:45.252Z,0.10
2018-03-19T23:23:17.659Z,0.10
2018-03-19T23:25:49.508Z,0.10
2018-03-19T23:28:21.732Z,0.10
2018-03-19T23:30:53.984Z,0.00
2018-03-19T23:33:25.723Z,0.00
2018-03-19T23:35:57.428Z,0.00
2018-03-19T23:38:29.531Z,0.00
2018-03-19T23:41:01.386Z,-0.10
2018-03-19T23:43:33.079Z,0.00
2018-03-19T23:46:04.514Z,0.00
2018-03-19T23:48:36.101Z,-0.10
2018-03-19T23:51:07.905Z,-0.10
2018-03-19T23:53:39.267Z,-0.10
2018-03-19T23:56:10.747Z,0.00
2018-03-19T23:58:42.913Z,-0.10
